Change the Weather History Date:

Sunday, October 7, 2012

  Actual Average Record
Temperature  
Mean Temperature 40 °F -  
Max Temperature 57 °F 64 °F 91 °F (1993)
Min Temperature 24 °F 39 °F 21 °F (1976)
Degree Days  
Heating Degree Days 24    
Moisture  
Dew Point 21 °F    
Average Humidity 51    
Maximum Humidity 80    
Minimum Humidity 26    
Precipitation  
Precipitation 0.00 in - - ()
Sea Level Pressure  
Sea Level Pressure 29.99 in    
Wind  
Wind Speed 9 mph (SSW)    
Max Wind Speed 18 mph    
Max Gust Speed 24 mph    
Visibility 10 miles    
Events      
Averages and records for this station are not official NWS values.
T = Trace of Precipitation, MM = Missing Value Source: NWS Daily Summary

Daily Weather History Graph

Daily Weather History Graph

Search for Another Location

Airport or City:

Trip Planner

Search our weather history database for the weather conditions in past years. The results will help you decide how hot, cold, wet, or windy it might be!

Date:

Astronomy

Oct. 07, 2012 Rise Set
Actual Time 7:32 AM CDT 6:53 PM CDT
Civil Twilight 7:03 AM CDT 7:23 PM CDT
Nautical Twilight 6:28 AM CDT 7:58 PM CDT
Astronomical Twilight 5:53 AM CDT 8:32 PM CDT
Moon 11:54 PM CDT (10/7) 2:23 PM CDT (10/7)
Length of Visible Light 12h 20m
Length of Day
11h 21m
Waning Gibbous, 56% of the Moon is Illuminated
Oct 7
Waning Gibbous
Oct 8
Last Quarter
Oct 15
New
Oct 21
First Quarter
Oct 29
Full

Hourly Weather History & Observations

Time (CDT) Temp. Windchill Dew Point Humidity Pressure Visibility Wind Dir Wind Speed Gust Speed Precip Events Conditions
12:15 AM 28.4 °F 20.4 °F 21.2 °F 74% 30.23 in 10.0 mi SSW 8.1 mph - N/A   Clear
12:35 AM 26.6 °F 19.1 °F 21.2 °F 80% 30.23 in 10.0 mi SSW 6.9 mph - N/A   Clear
12:54 AM 26.6 °F 19.1 °F 21.2 °F 80% 30.22 in 10.0 mi South 6.9 mph - N/A   Clear
1:14 AM 26.6 °F 20.0 °F 19.4 °F 74% 30.21 in 10.0 mi SSW 5.8 mph - N/A   Clear
1:34 AM 26.6 °F 17.5 °F 19.4 °F 74% 30.20 in 10.0 mi SSW 9.2 mph - N/A   Clear
2:15 AM 26.6 °F 17.5 °F 21.2 °F 80% 30.19 in 10.0 mi SSW 9.2 mph - N/A   Clear
2:34 AM 26.6 °F 18.2 °F 21.2 °F 80% 30.19 in 10.0 mi SSW 8.1 mph - N/A   Clear
2:55 AM 26.6 °F 18.2 °F 19.4 °F 74% 30.18 in 10.0 mi SSW 8.1 mph - N/A   Clear
3:14 AM 26.6 °F 18.2 °F 19.4 °F 74% 30.17 in 10.0 mi SSW 8.1 mph - N/A   Clear
3:55 AM 26.6 °F 18.2 °F 19.4 °F 74% 30.16 in 10.0 mi SSW 8.1 mph - N/A   Clear
4:15 AM 26.6 °F 20.0 °F 19.4 °F 74% 30.15 in 10.0 mi SSW 5.8 mph - N/A   Clear
4:35 AM 26.6 °F 20.0 °F 19.4 °F 74% 30.14 in 10.0 mi SSW 5.8 mph - N/A   Clear
4:55 AM 26.6 °F 19.1 °F 21.2 °F 80% 30.13 in 10.0 mi SSW 6.9 mph - N/A   Clear
5:15 AM 26.6 °F 19.1 °F 21.2 °F 80% 30.13 in 10.0 mi SSW 6.9 mph - N/A   Clear
5:35 AM 24.8 °F 15.3 °F 19.4 °F 80% 30.13 in 10.0 mi South 9.2 mph - N/A   Clear
5:55 AM 26.6 °F 18.2 °F 21.2 °F 80% 30.12 in 10.0 mi South 8.1 mph - N/A   Clear
6:15 AM 26.6 °F 17.5 °F 19.4 °F 74% 30.11 in 10.0 mi South 9.2 mph - N/A   Clear
6:35 AM 26.6 °F 17.5 °F 21.2 °F 80% 30.11 in 10.0 mi South 9.2 mph - N/A   Clear
6:55 AM 26.6 °F 18.2 °F 21.2 °F 80% 30.10 in 10.0 mi SSW 8.1 mph - N/A   Clear
7:15 AM 26.6 °F 17.5 °F 21.2 °F 80% 30.09 in 10.0 mi South 9.2 mph - N/A   Clear
7:35 AM 26.6 °F 16.8 °F 21.2 °F 80% 30.09 in 10.0 mi South 10.4 mph - N/A   Clear
7:55 AM 28.4 °F 19.7 °F 21.2 °F 74% 30.08 in 10.0 mi South 9.2 mph - N/A   Clear
8:15 AM 28.4 °F 19.7 °F 23.0 °F 80% 30.08 in 10.0 mi South 9.2 mph - N/A   Clear
8:35 AM 28.4 °F 19.7 °F 21.2 °F 74% 30.07 in 10.0 mi South 9.2 mph - N/A   Clear
8:56 AM 30.2 °F 21.3 °F 24.8 °F 80% 30.07 in 10.0 mi SSW 10.4 mph - N/A   Clear
9:14 AM 35.6 °F 29.9 °F 24.8 °F 65% 30.07 in 10.0 mi SSW 6.9 mph - N/A   Clear
9:34 AM 39.2 °F 32.5 °F 24.8 °F 56% 30.06 in 10.0 mi SSW 10.4 mph - N/A   Clear
9:54 AM 41.0 °F 35.2 °F 23.0 °F 49% 30.05 in 10.0 mi SSW 9.2 mph 17.3 mph N/A   Clear
10:14 AM 42.8 °F 35.4 °F 21.2 °F 42% 30.05 in 10.0 mi SSW 15.0 mph 19.6 mph N/A   Clear
10:35 AM 46.4 °F 40.7 °F 21.2 °F 37% 30.04 in 10.0 mi SW 12.7 mph 19.6 mph N/A   Clear
10:55 AM 48.2 °F - 21.2 °F 34% 30.03 in 10.0 mi SW 16.1 mph 19.6 mph N/A   Clear
11:14 AM 48.2 °F - 21.2 °F 34% 30.02 in 10.0 mi SSW 15.0 mph 21.9 mph N/A   Clear
11:34 AM 51.8 °F - 21.2 °F 30% 30.02 in 10.0 mi SW 12.7 mph 18.4 mph N/A   Clear
11:55 AM 51.8 °F - 23.0 °F 33% 30.01 in 10.0 mi SW 13.8 mph 18.4 mph N/A   Clear
12:15 PM 51.8 °F - 24.8 °F 35% 30.00 in 10.0 mi SW 13.8 mph 18.4 mph N/A   Scattered Clouds
12:35 PM 51.8 °F - 24.8 °F 35% 29.99 in 10.0 mi SW 15.0 mph 20.7 mph N/A   Scattered Clouds
12:55 PM 53.6 °F - 24.8 °F 33% 29.98 in 10.0 mi SW 15.0 mph 21.9 mph N/A   Clear
1:34 PM 55.4 °F - 23.0 °F 29% 29.96 in 10.0 mi WSW 16.1 mph 21.9 mph N/A   Clear
1:54 PM 55.4 °F - 23.0 °F 29% 29.95 in 10.0 mi SW 17.3 mph 24.2 mph N/A   Clear
2:14 PM 55.4 °F - 23.0 °F 29% 29.94 in 10.0 mi SW 17.3 mph 23.0 mph N/A   Clear
2:35 PM 55.4 °F - 23.0 °F 29% 29.93 in 10.0 mi SW 12.7 mph 21.9 mph N/A   Scattered Clouds
2:55 PM 55.4 °F - 23.0 °F 29% 29.92 in 10.0 mi SSW 17.3 mph 24.2 mph N/A   Scattered Clouds
3:15 PM 55.4 °F - 21.2 °F 26% 29.91 in 10.0 mi SW 18.4 mph 21.9 mph N/A   Scattered Clouds
3:35 PM 57.2 °F - 23.0 °F 27% 29.90 in 10.0 mi WSW 13.8 mph - N/A   Clear
3:55 PM 55.4 °F - 23.0 °F 29% 29.90 in 10.0 mi SSW 11.5 mph 19.6 mph N/A   Clear
4:15 PM 57.2 °F - 23.0 °F 27% 29.89 in 10.0 mi WSW 13.8 mph 17.3 mph N/A   Clear
4:35 PM 57.2 °F - 23.0 °F 27% 29.88 in 10.0 mi WSW 12.7 mph 16.1 mph N/A   Clear
4:55 PM 57.2 °F - 23.0 °F 27% 29.88 in 10.0 mi SW 12.7 mph - N/A   Clear
5:15 PM 57.2 °F - 23.0 °F 27% 29.87 in 10.0 mi SW 10.4 mph - N/A   Clear
5:35 PM 55.4 °F - 23.0 °F 29% 29.87 in 10.0 mi SW 9.2 mph - N/A   Clear
5:55 PM 55.4 °F - 21.2 °F 26% 29.86 in 10.0 mi SW 9.2 mph - N/A   Clear
6:15 PM 55.4 °F - 21.2 °F 26% 29.85 in 10.0 mi SSW 8.1 mph - N/A   Clear
6:35 PM 53.6 °F - 21.2 °F 28% 29.85 in 10.0 mi South 5.8 mph - N/A   Clear
6:55 PM 51.8 °F - 21.2 °F 30% 29.85 in 10.0 mi South 5.8 mph - N/A   Clear
7:14 PM 50.0 °F - 21.2 °F 32% 29.85 in 10.0 mi South 5.8 mph - N/A   Clear
7:35 PM 48.2 °F - 21.2 °F 34% 29.85 in 10.0 mi South 8.1 mph - N/A   Clear
7:54 PM 46.4 °F 42.4 °F 21.2 °F 37% 29.85 in 10.0 mi South 8.1 mph - N/A   Clear
8:15 PM 44.6 °F 40.7 °F 19.4 °F 37% 29.85 in 10.0 mi SSW 6.9 mph - N/A   Clear
8:35 PM 44.6 °F 42.2 °F 19.4 °F 37% 29.85 in 10.0 mi South 4.6 mph - N/A   Clear
8:54 PM 42.8 °F 38.0 °F 19.4 °F 39% 29.85 in 10.0 mi South 8.1 mph - N/A   Clear
9:15 PM 39.2 °F 34.2 °F 19.4 °F 45% 29.84 in 10.0 mi South 6.9 mph - N/A   Clear
9:34 PM 41.0 °F 35.2 °F 19.4 °F 42% 29.84 in 10.0 mi South 9.2 mph - N/A   Clear
9:54 PM 39.2 °F 33.0 °F 19.4 °F 45% 29.84 in 10.0 mi South 9.2 mph - N/A   Clear
10:14 PM 39.2 °F 33.0 °F 19.4 °F 45% 29.83 in 10.0 mi South 9.2 mph - N/A   Clear
10:35 PM 39.2 °F 33.6 °F 21.2 °F 49% 29.83 in 10.0 mi South 8.1 mph - N/A   Clear
10:54 PM 39.2 °F 34.2 °F 19.4 °F 45% 29.82 in 10.0 mi SSW 6.9 mph - N/A   Clear
11:15 PM 39.2 °F 33.6 °F 21.2 °F 49% 29.82 in 10.0 mi South 8.1 mph - N/A   Clear
11:35 PM 39.2 °F 33.0 °F 21.2 °F 49% 29.81 in 10.0 mi South 9.2 mph - N/A   Clear
11:55 PM 39.2 °F 35.0 °F 21.2 °F 49% 29.80 in 10.0 mi SSW 5.8 mph - N/A   Clear